sensor_id;sensor_type;location;lat;lon;timestamp;temperature;humidity
14140;DHT22;7150;53.514;9.988;2023-04-28T00:00:26;13.30;72.10
14140;DHT22;7150;53.514;9.988;2023-04-28T00:02:52;13.30;72.00
14140;DHT22;7150;53.514;9.988;2023-04-28T00:05:18;13.20;71.90
14140;DHT22;7150;53.514;9.988;2023-04-28T00:07:44;13.20;72.00
14140;DHT22;7150;53.514;9.988;2023-04-28T00:10:09;13.20;72.00
14140;DHT22;7150;53.514;9.988;2023-04-28T00:12:35;13.20;72.10
14140;DHT22;7150;53.514;9.988;2023-04-28T00:15:00;13.20;72.00
14140;DHT22;7150;53.514;9.988;2023-04-28T00:17:26;13.10;71.80
14140;DHT22;7150;53.514;9.988;2023-04-28T00:19:51;13.10;71.90
14140;DHT22;7150;53.514;9.988;2023-04-28T00:22:17;13.10;71.90
14140;DHT22;7150;53.514;9.988;2023-04-28T00:24:43;13.10;72.00
14140;DHT22;7150;53.514;9.988;2023-04-28T00:27:09;13.00;72.00
14140;DHT22;7150;53.514;9.988;2023-04-28T00:29:34;13.00;71.90
14140;DHT22;7150;53.514;9.988;2023-04-28T00:32:01;13.00;71.90
14140;DHT22;7150;53.514;9.988;2023-04-28T00:34:27;13.10;71.90
14140;DHT22;7150;53.514;9.988;2023-04-28T00:36:54;13.00;71.80
14140;DHT22;7150;53.514;9.988;2023-04-28T00:39:19;13.00;71.80
14140;DHT22;7150;53.514;9.988;2023-04-28T00:41:47;12.90;71.60
14140;DHT22;7150;53.514;9.988;2023-04-28T00:44:12;12.90;71.70
14140;DHT22;7150;53.514;9.988;2023-04-28T00:46:38;13.00;71.90
14140;DHT22;7150;53.514;9.988;2023-04-28T00:49:03;13.00;71.80
14140;DHT22;7150;53.514;9.988;2023-04-28T00:51:29;12.90;71.60
14140;DHT22;7150;53.514;9.988;2023-04-28T00:53:58;12.90;71.70
14140;DHT22;7150;53.514;9.988;2023-04-28T00:56:23;12.80;71.80
14140;DHT22;7150;53.514;9.988;2023-04-28T00:58:52;12.80;71.90
14140;DHT22;7150;53.514;9.988;2023-04-28T01:01:17;12.80;72.00
14140;DHT22;7150;53.514;9.988;2023-04-28T01:03:44;12.70;72.00
14140;DHT22;7150;53.514;9.988;2023-04-28T01:06:09;12.70;71.90
14140;DHT22;7150;53.514;9.988;2023-04-28T01:08:37;12.70;72.00
14140;DHT22;7150;53.514;9.988;2023-04-28T01:11:03;12.70;72.00
14140;DHT22;7150;53.514;9.988;2023-04-28T01:13:28;12.70;72.00
14140;DHT22;7150;53.514;9.988;2023-04-28T01:15:57;12.60;72.00
14140;DHT22;7150;53.514;9.988;2023-04-28T01:18:23;12.60;72.10
14140;DHT22;7150;53.514;9.988;2023-04-28T01:20:48;12.60;72.10
14140;DHT22;7150;53.514;9.988;2023-04-28T01:23:15;12.60;72.00
14140;DHT22;7150;53.514;9.988;2023-04-28T01:25:41;12.60;72.00
14140;DHT22;7150;53.514;9.988;2023-04-28T01:31:29;12.60;71.90
14140;DHT22;7150;53.514;9.988;2023-04-28T01:33:57;12.40;72.20
14140;DHT22;7150;53.514;9.988;2023-04-28T01:36:23;12.40;72.20
14140;DHT22;7150;53.514;9.988;2023-04-28T01:38:49;12.50;72.10
14140;DHT22;7150;53.514;9.988;2023-04-28T01:41:15;12.50;72.10
14140;DHT22;7150;53.514;9.988;2023-04-28T01:43:41;12.50;72.10
14140;DHT22;7150;53.514;9.988;2023-04-28T01:46:08;12.50;72.10
14140;DHT22;7150;53.514;9.988;2023-04-28T01:48:34;12.50;71.90
14140;DHT22;7150;53.514;9.988;2023-04-28T01:51:00;12.50;71.80
14140;DHT22;7150;53.514;9.988;2023-04-28T01:53:26;12.50;71.70
14140;DHT22;7150;53.514;9.988;2023-04-28T01:55:52;12.60;71.80
14140;DHT22;7150;53.514;9.988;2023-04-28T01:58:18;12.60;71.80
14140;DHT22;7150;53.514;9.988;2023-04-28T02:00:44;12.60;71.80
14140;DHT22;7150;53.514;9.988;2023-04-28T02:03:10;12.60;71.80
14140;DHT22;7150;53.514;9.988;2023-04-28T02:05:35;12.50;71.60
14140;DHT22;7150;53.514;9.988;2023-04-28T02:08:01;12.60;71.70
14140;DHT22;7150;53.514;9.988;2023-04-28T02:10:27;12.50;71.70
14140;DHT22;7150;53.514;9.988;2023-04-28T02:12:53;12.50;71.80
14140;DHT22;7150;53.514;9.988;2023-04-28T02:15:18;12.50;71.80
14140;DHT22;7150;53.514;9.988;2023-04-28T02:17:44;12.50;71.80
14140;DHT22;7150;53.514;9.988;2023-04-28T02:20:09;12.50;71.80
14140;DHT22;7150;53.514;9.988;2023-04-28T02:22:35;12.60;71.80
14140;DHT22;7150;53.514;9.988;2023-04-28T02:25:01;12.50;71.70
14140;DHT22;7150;53.514;9.988;2023-04-28T02:27:26;12.50;72.40
14140;DHT22;7150;53.514;9.988;2023-04-28T02:29:52;12.50;71.80
14140;DHT22;7150;53.514;9.988;2023-04-28T02:32:17;12.50;71.80
14140;DHT22;7150;53.514;9.988;2023-04-28T02:34:43;12.50;71.60
14140;DHT22;7150;53.514;9.988;2023-04-28T02:37:08;12.50;71.60
14140;DHT22;7150;53.514;9.988;2023-04-28T02:39:34;12.50;71.60
14140;DHT22;7150;53.514;9.988;2023-04-28T02:41:59;12.40;71.50
14140;DHT22;7150;53.514;9.988;2023-04-28T02:44:25;12.40;71.50
14140;DHT22;7150;53.514;9.988;2023-04-28T02:46:51;12.40;71.50
14140;DHT22;7150;53.514;9.988;2023-04-28T02:49:16;12.40;71.50
14140;DHT22;7150;53.514;9.988;2023-04-28T02:51:42;12.30;71.40
14140;DHT22;7150;53.514;9.988;2023-04-28T02:54:07;12.30;71.40
14140;DHT22;7150;53.514;9.988;2023-04-28T02:56:33;12.40;71.40
14140;DHT22;7150;53.514;9.988;2023-04-28T02:58:59;12.30;71.30
14140;DHT22;7150;53.514;9.988;2023-04-28T03:01:24;12.30;71.40
14140;DHT22;7150;53.514;9.988;2023-04-28T03:03:50;12.20;71.40
14140;DHT22;7150;53.514;9.988;2023-04-28T03:06:15;12.20;71.50
14140;DHT22;7150;53.514;9.988;2023-04-28T03:08:41;12.10;71.60
14140;DHT22;7150;53.514;9.988;2023-04-28T03:11:06;12.10;71.60
14140;DHT22;7150;53.514;9.988;2023-04-28T03:13:32;12.10;71.70
14140;DHT22;7150;53.514;9.988;2023-04-28T03:15:57;12.10;71.80
14140;DHT22;7150;53.514;9.988;2023-04-28T03:18:23;12.00;71.80
14140;DHT22;7150;53.514;9.988;2023-04-28T03:20:49;12.00;71.80
14140;DHT22;7150;53.514;9.988;2023-04-28T03:23:15;12.10;71.80
14140;DHT22;7150;53.514;9.988;2023-04-28T03:25:40;12.00;71.80
14140;DHT22;7150;53.514;9.988;2023-04-28T03:28:06;12.00;71.60
14140;DHT22;7150;53.514;9.988;2023-04-28T03:30:32;12.00;71.60
14140;DHT22;7150;53.514;9.988;2023-04-28T03:32:57;12.00;71.50
14140;DHT22;7150;53.514;9.988;2023-04-28T03:35:23;12.00;71.30
14140;DHT22;7150;53.514;9.988;2023-04-28T03:37:48;12.00;71.20
14140;DHT22;7150;53.514;9.988;2023-04-28T03:40:14;12.00;71.20
14140;DHT22;7150;53.514;9.988;2023-04-28T03:42:39;12.00;71.20
14140;DHT22;7150;53.514;9.988;2023-04-28T03:45:06;11.90;71.80
14140;DHT22;7150;53.514;9.988;2023-04-28T03:47:31;11.90;71.10
14140;DHT22;7150;53.514;9.988;2023-04-28T03:49:57;11.90;71.20
14140;DHT22;7150;53.514;9.988;2023-04-28T03:52:23;11.90;71.10
14140;DHT22;7150;53.514;9.988;2023-04-28T03:54:49;11.90;71.00
14140;DHT22;7150;53.514;9.988;2023-04-28T03:57:14;11.90;71.00
14140;DHT22;7150;53.514;9.988;2023-04-28T03:59:40;11.90;71.00
14140;DHT22;7150;53.514;9.988;2023-04-28T04:02:05;11.90;71.00
14140;DHT22;7150;53.514;9.988;2023-04-28T04:04:31;11.80;70.90
14140;DHT22;7150;53.514;9.988;2023-04-28T04:06:56;11.80;71.00
14140;DHT22;7150;53.514;9.988;2023-04-28T04:09:22;11.80;71.00
14140;DHT22;7150;53.514;9.988;2023-04-28T04:11:48;11.80;71.00
14140;DHT22;7150;53.514;9.988;2023-04-28T04:14:13;11.80;71.00
14140;DHT22;7150;53.514;9.988;2023-04-28T04:16:39;11.80;71.00
14140;DHT22;7150;53.514;9.988;2023-04-28T04:19:05;11.80;71.00
14140;DHT22;7150;53.514;9.988;2023-04-28T04:21:31;11.80;70.90
14140;DHT22;7150;53.514;9.988;2023-04-28T04:23:56;11.80;71.00
14140;DHT22;7150;53.514;9.988;2023-04-28T04:26:22;11.80;71.20
14140;DHT22;7150;53.514;9.988;2023-04-28T04:28:48;11.80;71.20
14140;DHT22;7150;53.514;9.988;2023-04-28T04:31:13;11.80;71.40
14140;DHT22;7150;53.514;9.988;2023-04-28T04:33:39;11.80;71.50
14140;DHT22;7150;53.514;9.988;2023-04-28T04:36:05;11.70;71.60
14140;DHT22;7150;53.514;9.988;2023-04-28T04:38:31;11.70;71.60
14140;DHT22;7150;53.514;9.988;2023-04-28T04:40:56;11.70;71.70
14140;DHT22;7150;53.514;9.988;2023-04-28T04:43:22;11.70;71.80
14140;DHT22;7150;53.514;9.988;2023-04-28T04:45:47;11.80;71.80
14140;DHT22;7150;53.514;9.988;2023-04-28T04:48:13;11.80;71.60
14140;DHT22;7150;53.514;9.988;2023-04-28T04:50:40;11.80;71.60
14140;DHT22;7150;53.514;9.988;2023-04-28T04:53:05;11.80;71.60
14140;DHT22;7150;53.514;9.988;2023-04-28T04:55:31;11.80;71.60
14140;DHT22;7150;53.514;9.988;2023-04-28T04:57:56;11.80;71.60
14140;DHT22;7150;53.514;9.988;2023-04-28T05:00:22;11.80;71.30
14140;DHT22;7150;53.514;9.988;2023-04-28T05:02:47;11.80;71.30
14140;DHT22;7150;53.514;9.988;2023-04-28T05:05:13;11.80;71.40
14140;DHT22;7150;53.514;9.988;2023-04-28T05:07:38;11.80;71.50
14140;DHT22;7150;53.514;9.988;2023-04-28T05:10:04;11.90;71.60
14140;DHT22;7150;53.514;9.988;2023-04-28T05:12:31;11.90;71.50
14140;DHT22;7150;53.514;9.988;2023-04-28T05:14:57;12.00;71.50
14140;DHT22;7150;53.514;9.988;2023-04-28T05:17:22;12.00;71.30
14140;DHT22;7150;53.514;9.988;2023-04-28T05:19:48;12.00;71.30
14140;DHT22;7150;53.514;9.988;2023-04-28T05:22:13;12.00;71.20
14140;DHT22;7150;53.514;9.988;2023-04-28T05:24:39;12.00;71.10
14140;DHT22;7150;53.514;9.988;2023-04-28T05:27:04;12.00;71.00
14140;DHT22;7150;53.514;9.988;2023-04-28T05:29:30;12.10;70.90
14140;DHT22;7150;53.514;9.988;2023-04-28T05:31:55;12.10;70.70
14140;DHT22;7150;53.514;9.988;2023-04-28T05:34:21;12.10;70.60
14140;DHT22;7150;53.514;9.988;2023-04-28T05:36:46;12.10;70.10
14140;DHT22;7150;53.514;9.988;2023-04-28T05:39:12;12.10;69.90
14140;DHT22;7150;53.514;9.988;2023-04-28T05:41:37;12.20;69.70
14140;DHT22;7150;53.514;9.988;2023-04-28T05:44:03;12.30;69.50
14140;DHT22;7150;53.514;9.988;2023-04-28T05:46:29;12.30;69.10
14140;DHT22;7150;53.514;9.988;2023-04-28T05:48:55;12.30;68.90
14140;DHT22;7150;53.514;9.988;2023-04-28T05:51:21;12.40;68.90
14140;DHT22;7150;53.514;9.988;2023-04-28T05:53:46;12.40;68.50
14140;DHT22;7150;53.514;9.988;2023-04-28T05:56:13;12.40;68.30
14140;DHT22;7150;53.514;9.988;2023-04-28T05:58:39;12.50;68.10
14140;DHT22;7150;53.514;9.988;2023-04-28T06:01:05;12.50;67.90
14140;DHT22;7150;53.514;9.988;2023-04-28T06:03:30;12.60;67.70
14140;DHT22;7150;53.514;9.988;2023-04-28T06:05:56;12.70;67.60
14140;DHT22;7150;53.514;9.988;2023-04-28T06:08:22;12.70;67.50
14140;DHT22;7150;53.514;9.988;2023-04-28T06:10:47;12.80;67.30
14140;DHT22;7150;53.514;9.988;2023-04-28T06:13:12;12.80;67.00
14140;DHT22;7150;53.514;9.988;2023-04-28T06:15:38;12.90;66.90
14140;DHT22;7150;53.514;9.988;2023-04-28T06:18:04;12.90;66.90
14140;DHT22;7150;53.514;9.988;2023-04-28T06:20:31;13.00;66.80
14140;DHT22;7150;53.514;9.988;2023-04-28T06:22:57;13.10;66.70
14140;DHT22;7150;53.514;9.988;2023-04-28T06:25:22;13.10;66.30
14140;DHT22;7150;53.514;9.988;2023-04-28T06:27:48;13.20;66.50
14140;DHT22;7150;53.514;9.988;2023-04-28T06:30:17;13.20;66.40
14140;DHT22;7150;53.514;9.988;2023-04-28T06:32:44;13.30;66.00
14140;DHT22;7150;53.514;9.988;2023-04-28T06:35:09;13.40;65.50
14140;DHT22;7150;53.514;9.988;2023-04-28T06:37:35;13.40;65.00
14140;DHT22;7150;53.514;9.988;2023-04-28T06:40:00;13.50;64.50
14140;DHT22;7150;53.514;9.988;2023-04-28T06:42:26;13.50;64.30
14140;DHT22;7150;53.514;9.988;2023-04-28T06:44:51;13.60;64.00
14140;DHT22;7150;53.514;9.988;2023-04-28T06:47:17;13.70;63.80
14140;DHT22;7150;53.514;9.988;2023-04-28T06:49:42;13.80;63.60
14140;DHT22;7150;53.514;9.988;2023-04-28T06:52:09;13.80;63.40
14140;DHT22;7150;53.514;9.988;2023-04-28T06:54:35;13.90;63.30
14140;DHT22;7150;53.514;9.988;2023-04-28T06:57:02;13.90;63.00
14140;DHT22;7150;53.514;9.988;2023-04-28T06:59:28;14.00;62.80
14140;DHT22;7150;53.514;9.988;2023-04-28T07:01:53;14.00;62.70
14140;DHT22;7150;53.514;9.988;2023-04-28T07:04:19;14.10;62.60
14140;DHT22;7150;53.514;9.988;2023-04-28T07:06:44;14.10;62.50
14140;DHT22;7150;53.514;9.988;2023-04-28T07:09:10;14.10;62.30
14140;DHT22;7150;53.514;9.988;2023-04-28T07:11:35;14.10;62.20
14140;DHT22;7150;53.514;9.988;2023-04-28T07:14:01;14.20;62.20
14140;DHT22;7150;53.514;9.988;2023-04-28T07:16:27;14.20;62.20
14140;DHT22;7150;53.514;9.988;2023-04-28T07:18:52;14.20;62.10
14140;DHT22;7150;53.514;9.988;2023-04-28T07:21:18;14.30;62.20
14140;DHT22;7150;53.514;9.988;2023-04-28T07:23:44;14.30;62.20
14140;DHT22;7150;53.514;9.988;2023-04-28T07:26:10;14.40;62.20
14140;DHT22;7150;53.514;9.988;2023-04-28T07:28:35;14.50;62.30
14140;DHT22;7150;53.514;9.988;2023-04-28T07:31:01;14.60;62.20
14140;DHT22;7150;53.514;9.988;2023-04-28T07:33:26;14.60;62.10
14140;DHT22;7150;53.514;9.988;2023-04-28T07:35:52;14.60;62.10
14140;DHT22;7150;53.514;9.988;2023-04-28T07:38:18;14.70;61.90
14140;DHT22;7150;53.514;9.988;2023-04-28T07:40:45;14.80;61.70
14140;DHT22;7150;53.514;9.988;2023-04-28T07:43:10;14.90;61.30
14140;DHT22;7150;53.514;9.988;2023-04-28T07:45:39;14.90;60.90
14140;DHT22;7150;53.514;9.988;2023-04-28T07:48:05;15.00;60.40
14140;DHT22;7150;53.514;9.988;2023-04-28T07:50:31;15.10;60.40
14140;DHT22;7150;53.514;9.988;2023-04-28T07:52:57;15.10;60.00
14140;DHT22;7150;53.514;9.988;2023-04-28T07:55:23;15.20;59.70
14140;DHT22;7150;53.514;9.988;2023-04-28T07:57:48;15.30;59.60
14140;DHT22;7150;53.514;9.988;2023-04-28T08:00:14;15.30;59.40
14140;DHT22;7150;53.514;9.988;2023-04-28T08:02:40;15.40;59.20
14140;DHT22;7150;53.514;9.988;2023-04-28T08:05:05;15.40;58.90
14140;DHT22;7150;53.514;9.988;2023-04-28T08:07:32;15.40;58.40
14140;DHT22;7150;53.514;9.988;2023-04-28T08:09:57;15.50;58.50
14140;DHT22;7150;53.514;9.988;2023-04-28T08:12:23;15.40;58.40
14140;DHT22;7150;53.514;9.988;2023-04-28T08:14:48;15.50;58.50
14140;DHT22;7150;53.514;9.988;2023-04-28T08:17:14;15.60;58.80
14140;DHT22;7150;53.514;9.988;2023-04-28T08:19:40;15.60;58.80
14140;DHT22;7150;53.514;9.988;2023-04-28T08:22:05;15.60;58.70
14140;DHT22;7150;53.514;9.988;2023-04-28T08:24:32;15.70;58.60
14140;DHT22;7150;53.514;9.988;2023-04-28T08:27:01;15.70;58.60
14140;DHT22;7150;53.514;9.988;2023-04-28T08:29:30;15.80;58.70
14140;DHT22;7150;53.514;9.988;2023-04-28T08:31:56;15.80;58.70
14140;DHT22;7150;53.514;9.988;2023-04-28T08:34:22;15.90;58.70
14140;DHT22;7150;53.514;9.988;2023-04-28T08:36:47;16.00;58.60
14140;DHT22;7150;53.514;9.988;2023-04-28T08:39:13;16.10;58.50
14140;DHT22;7150;53.514;9.988;2023-04-28T08:41:38;16.10;58.20
14140;DHT22;7150;53.514;9.988;2023-04-28T08:44:08;16.10;58.10
14140;DHT22;7150;53.514;9.988;2023-04-28T08:46:34;16.20;58.00
14140;DHT22;7150;53.514;9.988;2023-04-28T08:49:00;16.20;58.00
14140;DHT22;7150;53.514;9.988;2023-04-28T08:51:33;16.30;57.90
14140;DHT22;7150;53.514;9.988;2023-04-28T08:54:02;16.30;57.90
14140;DHT22;7150;53.514;9.988;2023-04-28T08:56:32;16.30;57.90
14140;DHT22;7150;53.514;9.988;2023-04-28T08:59:04;16.40;57.80
14140;DHT22;7150;53.514;9.988;2023-04-28T09:01:30;16.40;57.80
14140;DHT22;7150;53.514;9.988;2023-04-28T09:03:56;16.50;57.70
14140;DHT22;7150;53.514;9.988;2023-04-28T09:06:22;16.50;57.60
14140;DHT22;7150;53.514;9.988;2023-04-28T09:08:47;16.50;57.50
14140;DHT22;7150;53.514;9.988;2023-04-28T09:11:13;16.60;57.50
14140;DHT22;7150;53.514;9.988;2023-04-28T09:13:40;16.60;57.50
14140;DHT22;7150;53.514;9.988;2023-04-28T09:16:06;16.70;57.60
14140;DHT22;7150;53.514;9.988;2023-04-28T09:18:32;16.80;57.70
14140;DHT22;7150;53.514;9.988;2023-04-28T09:21:10;16.80;57.60
14140;DHT22;7150;53.514;9.988;2023-04-28T09:23:48;16.90;57.50
14140;DHT22;7150;53.514;9.988;2023-04-28T09:26:15;16.90;57.40
14140;DHT22;7150;53.514;9.988;2023-04-28T09:28:40;17.00;57.20
14140;DHT22;7150;53.514;9.988;2023-04-28T09:31:21;17.00;57.00
14140;DHT22;7150;53.514;9.988;2023-04-28T09:33:56;17.10;56.70
14140;DHT22;7150;53.514;9.988;2023-04-28T09:36:28;17.20;56.70
14140;DHT22;7150;53.514;9.988;2023-04-28T09:38:58;17.10;56.70
14140;DHT22;7150;53.514;9.988;2023-04-28T09:41:44;17.20;56.60
14140;DHT22;7150;53.514;9.988;2023-04-28T09:44:15;17.30;56.60
14140;DHT22;7150;53.514;9.988;2023-04-28T09:46:45;17.30;56.70
14140;DHT22;7150;53.514;9.988;2023-04-28T09:49:11;17.30;56.70
14140;DHT22;7150;53.514;9.988;2023-04-28T09:51:37;17.30;56.50
14140;DHT22;7150;53.514;9.988;2023-04-28T09:54:03;17.40;56.50
14140;DHT22;7150;53.514;9.988;2023-04-28T09:56:30;17.40;56.30
14140;DHT22;7150;53.514;9.988;2023-04-28T09:58:57;17.50;56.10
14140;DHT22;7150;53.514;9.988;2023-04-28T10:01:30;17.60;56.10
14140;DHT22;7150;53.514;9.988;2023-04-28T10:03:57;17.60;56.10
14140;DHT22;7150;53.514;9.988;2023-04-28T10:06:24;17.60;56.00
14140;DHT22;7150;53.514;9.988;2023-04-28T10:08:50;17.70;56.10
14140;DHT22;7150;53.514;9.988;2023-04-28T10:11:16;17.70;56.10
14140;DHT22;7150;53.514;9.988;2023-04-28T10:13:42;17.80;56.00
14140;DHT22;7150;53.514;9.988;2023-04-28T10:16:11;17.90;56.10
14140;DHT22;7150;53.514;9.988;2023-04-28T10:18:37;17.90;55.80
14140;DHT22;7150;53.514;9.988;2023-04-28T10:21:05;18.00;55.80
14140;DHT22;7150;53.514;9.988;2023-04-28T10:26:02;18.10;55.40
14140;DHT22;7150;53.514;9.988;2023-04-28T10:28:28;18.10;55.60
14140;DHT22;7150;53.514;9.988;2023-04-28T10:31:14;18.10;55.30
14140;DHT22;7150;53.514;9.988;2023-04-28T10:33:41;18.20;55.30
14140;DHT22;7150;53.514;9.988;2023-04-28T10:36:07;18.20;55.10
14140;DHT22;7150;53.514;9.988;2023-04-28T10:38:34;18.30;55.10
14140;DHT22;7150;53.514;9.988;2023-04-28T10:41:00;18.30;54.80
14140;DHT22;7150;53.514;9.988;2023-04-28T10:43:38;18.30;54.90
14140;DHT22;7150;53.514;9.988;2023-04-28T10:46:04;18.40;55.20
14140;DHT22;7150;53.514;9.988;2023-04-28T10:56:12;18.50;55.10
14140;DHT22;7150;53.514;9.988;2023-04-28T10:58:40;18.50;54.90
14140;DHT22;7150;53.514;9.988;2023-04-28T11:03:52;18.50;54.70
14140;DHT22;7150;53.514;9.988;2023-04-28T11:06:35;18.50;54.60
14140;DHT22;7150;53.514;9.988;2023-04-28T11:16:52;18.60;54.40
14140;DHT22;7150;53.514;9.988;2023-04-28T11:19:22;18.70;54.20
14140;DHT22;7150;53.514;9.988;2023-04-28T11:21:49;18.70;54.50
14140;DHT22;7150;53.514;9.988;2023-04-28T11:24:15;18.70;54.90
14140;DHT22;7150;53.514;9.988;2023-04-28T11:26:42;18.70;55.00
14140;DHT22;7150;53.514;9.988;2023-04-28T11:29:08;18.70;54.70
14140;DHT22;7150;53.514;9.988;2023-04-28T11:31:34;18.70;54.80
14140;DHT22;7150;53.514;9.988;2023-04-28T11:34:04;18.70;54.90
14140;DHT22;7150;53.514;9.988;2023-04-28T11:36:35;18.70;54.60
14140;DHT22;7150;53.514;9.988;2023-04-28T11:39:05;18.70;54.70
14140;DHT22;7150;53.514;9.988;2023-04-28T11:41:36;18.70;54.60
14140;DHT22;7150;53.514;9.988;2023-04-28T11:44:09;18.70;54.50
14140;DHT22;7150;53.514;9.988;2023-04-28T11:46:35;18.70;54.60
14140;DHT22;7150;53.514;9.988;2023-04-28T11:49:08;18.70;54.60
14140;DHT22;7150;53.514;9.988;2023-04-28T11:51:37;18.80;54.70
14140;DHT22;7150;53.514;9.988;2023-04-28T11:54:04;18.80;54.90
14140;DHT22;7150;53.514;9.988;2023-04-28T11:56:36;18.80;54.80
14140;DHT22;7150;53.514;9.988;2023-04-28T11:59:03;18.80;54.60
14140;DHT22;7150;53.514;9.988;2023-04-28T12:01:30;18.80;54.70
14140;DHT22;7150;53.514;9.988;2023-04-28T12:03:56;18.80;55.10
14140;DHT22;7150;53.514;9.988;2023-04-28T12:06:21;18.80;55.10
14140;DHT22;7150;53.514;9.988;2023-04-28T12:08:47;18.80;54.90
14140;DHT22;7150;53.514;9.988;2023-04-28T12:11:13;18.80;54.80
14140;DHT22;7150;53.514;9.988;2023-04-28T12:13:40;18.70;54.90
14140;DHT22;7150;53.514;9.988;2023-04-28T12:16:07;18.80;55.00
14140;DHT22;7150;53.514;9.988;2023-04-28T12:18:36;18.80;55.10
14140;DHT22;7150;53.514;9.988;2023-04-28T12:21:03;18.80;55.10
14140;DHT22;7150;53.514;9.988;2023-04-28T12:23:35;18.80;55.10
14140;DHT22;7150;53.514;9.988;2023-04-28T12:26:01;18.80;55.20
14140;DHT22;7150;53.514;9.988;2023-04-28T12:28:37;18.80;55.00
14140;DHT22;7150;53.514;9.988;2023-04-28T12:31:04;18.70;55.00
14140;DHT22;7150;53.514;9.988;2023-04-28T12:33:30;18.70;55.20
14140;DHT22;7150;53.514;9.988;2023-04-28T12:35:58;18.70;55.20
14140;DHT22;7150;53.514;9.988;2023-04-28T12:38:24;18.70;55.30
14140;DHT22;7150;53.514;9.988;2023-04-28T12:40:50;18.70;55.20
14140;DHT22;7150;53.514;9.988;2023-04-28T12:43:15;18.70;55.20
14140;DHT22;7150;53.514;9.988;2023-04-28T12:45:41;18.60;55.20
14140;DHT22;7150;53.514;9.988;2023-04-28T12:48:07;18.60;55.40
14140;DHT22;7150;53.514;9.988;2023-04-28T12:50:33;18.50;55.30
14140;DHT22;7150;53.514;9.988;2023-04-28T12:52:58;18.50;55.50
14140;DHT22;7150;53.514;9.988;2023-04-28T12:55:24;18.50;55.40
14140;DHT22;7150;53.514;9.988;2023-04-28T12:57:51;18.50;55.30
14140;DHT22;7150;53.514;9.988;2023-04-28T13:00:17;18.50;55.50
14140;DHT22;7150;53.514;9.988;2023-04-28T13:02:45;18.50;55.50
14140;DHT22;7150;53.514;9.988;2023-04-28T13:05:11;18.50;55.50
14140;DHT22;7150;53.514;9.988;2023-04-28T13:07:36;18.50;55.60
14140;DHT22;7150;53.514;9.988;2023-04-28T13:10:02;18.50;55.70
14140;DHT22;7150;53.514;9.988;2023-04-28T13:12:28;18.40;55.70
14140;DHT22;7150;53.514;9.988;2023-04-28T13:14:53;18.40;55.90
14140;DHT22;7150;53.514;9.988;2023-04-28T13:17:18;18.40;56.10
14140;DHT22;7150;53.514;9.988;2023-04-28T13:19:44;18.40;56.10
14140;DHT22;7150;53.514;9.988;2023-04-28T13:22:10;18.40;56.20
14140;DHT22;7150;53.514;9.988;2023-04-28T13:24:36;18.40;56.40
14140;DHT22;7150;53.514;9.988;2023-04-28T13:27:02;18.30;56.30
14140;DHT22;7150;53.514;9.988;2023-04-28T13:29:28;18.30;56.30
14140;DHT22;7150;53.514;9.988;2023-04-28T13:31:55;18.30;56.20
14140;DHT22;7150;53.514;9.988;2023-04-28T13:34:21;18.40;56.50
14140;DHT22;7150;53.514;9.988;2023-04-28T13:36:46;18.30;56.60
14140;DHT22;7150;53.514;9.988;2023-04-28T13:39:15;18.30;56.50
14140;DHT22;7150;53.514;9.988;2023-04-28T13:41:41;18.30;56.70
14140;DHT22;7150;53.514;9.988;2023-04-28T13:44:07;18.30;56.60
14140;DHT22;7150;53.514;9.988;2023-04-28T13:46:33;18.30;56.80
14140;DHT22;7150;53.514;9.988;2023-04-28T13:48:59;18.30;56.80
14140;DHT22;7150;53.514;9.988;2023-04-28T13:51:24;18.30;56.90
14140;DHT22;7150;53.514;9.988;2023-04-28T13:53:50;18.30;56.80
14140;DHT22;7150;53.514;9.988;2023-04-28T13:56:15;18.40;57.10
14140;DHT22;7150;53.514;9.988;2023-04-28T13:58:41;18.40;57.20
14140;DHT22;7150;53.514;9.988;2023-04-28T14:01:06;18.40;57.30
14140;DHT22;7150;53.514;9.988;2023-04-28T14:03:32;18.40;57.40
14140;DHT22;7150;53.514;9.988;2023-04-28T14:05:58;18.40;57.40
14140;DHT22;7150;53.514;9.988;2023-04-28T14:08:24;18.40;57.60
14140;DHT22;7150;53.514;9.988;2023-04-28T14:10:50;18.50;57.80
14140;DHT22;7150;53.514;9.988;2023-04-28T14:13:17;18.50;58.00
14140;DHT22;7150;53.514;9.988;2023-04-28T14:15:43;18.50;58.00
14140;DHT22;7150;53.514;9.988;2023-04-28T14:18:10;18.50;57.90
14140;DHT22;7150;53.514;9.988;2023-04-28T14:20:35;18.50;57.80
14140;DHT22;7150;53.514;9.988;2023-04-28T14:23:01;18.50;57.90
14140;DHT22;7150;53.514;9.988;2023-04-28T14:25:27;18.50;57.80
14140;DHT22;7150;53.514;9.988;2023-04-28T14:27:52;18.50;57.60
14140;DHT22;7150;53.514;9.988;2023-04-28T14:30:19;18.50;57.60
14140;DHT22;7150;53.514;9.988;2023-04-28T14:32:45;18.50;57.50
14140;DHT22;7150;53.514;9.988;2023-04-28T14:35:11;18.50;57.60
14140;DHT22;7150;53.514;9.988;2023-04-28T14:37:37;18.40;57.70
14140;DHT22;7150;53.514;9.988;2023-04-28T14:40:03;18.40;57.70
14140;DHT22;7150;53.514;9.988;2023-04-28T14:42:31;18.40;57.80
14140;DHT22;7150;53.514;9.988;2023-04-28T14:44:58;18.40;57.80
14140;DHT22;7150;53.514;9.988;2023-04-28T14:47:24;18.40;57.90
14140;DHT22;7150;53.514;9.988;2023-04-28T14:49:51;18.40;58.10
14140;DHT22;7150;53.514;9.988;2023-04-28T14:52:22;18.40;58.50
14140;DHT22;7150;53.514;9.988;2023-04-28T14:54:49;18.40;58.50
14140;DHT22;7150;53.514;9.988;2023-04-28T14:57:15;18.40;58.60
14140;DHT22;7150;53.514;9.988;2023-04-28T14:59:41;18.30;58.40
14140;DHT22;7150;53.514;9.988;2023-04-28T15:02:07;18.30;58.50
14140;DHT22;7150;53.514;9.988;2023-04-28T15:04:32;18.40;58.60
14140;DHT22;7150;53.514;9.988;2023-04-28T15:06:58;18.30;58.50
14140;DHT22;7150;53.514;9.988;2023-04-28T15:09:25;18.30;58.50
14140;DHT22;7150;53.514;9.988;2023-04-28T15:11:51;18.30;58.70
14140;DHT22;7150;53.514;9.988;2023-04-28T15:14:17;18.30;58.70
14140;DHT22;7150;53.514;9.988;2023-04-28T15:16:43;18.30;58.70
14140;DHT22;7150;53.514;9.988;2023-04-28T15:19:09;18.30;58.70
14140;DHT22;7150;53.514;9.988;2023-04-28T15:21:34;18.30;58.80
14140;DHT22;7150;53.514;9.988;2023-04-28T15:24:00;18.30;59.30
14140;DHT22;7150;53.514;9.988;2023-04-28T15:26:26;18.30;60.20
14140;DHT22;7150;53.514;9.988;2023-04-28T15:28:54;18.40;60.90
14140;DHT22;7150;53.514;9.988;2023-04-28T15:31:19;18.30;61.60
14140;DHT22;7150;53.514;9.988;2023-04-28T15:33:48;18.30;62.00
14140;DHT22;7150;53.514;9.988;2023-04-28T15:36:13;18.30;62.90
14140;DHT22;7150;53.514;9.988;2023-04-28T15:38:39;18.30;63.30
14140;DHT22;7150;53.514;9.988;2023-04-28T15:41:06;18.30;63.20
14140;DHT22;7150;53.514;9.988;2023-04-28T15:43:32;18.30;64.80
14140;DHT22;7150;53.514;9.988;2023-04-28T15:45:58;18.30;65.80
14140;DHT22;7150;53.514;9.988;2023-04-28T15:48:25;18.30;66.00
14140;DHT22;7150;53.514;9.988;2023-04-28T15:50:51;18.30;65.70
14140;DHT22;7150;53.514;9.988;2023-04-28T15:53:17;18.20;65.80
14140;DHT22;7150;53.514;9.988;2023-04-28T15:55:42;18.30;66.20
14140;DHT22;7150;53.514;9.988;2023-04-28T15:58:08;18.20;66.20
14140;DHT22;7150;53.514;9.988;2023-04-28T16:00:35;18.20;65.20
14140;DHT22;7150;53.514;9.988;2023-04-28T16:03:01;18.20;64.50